PWSweather.com
Personal Weather Stations
Station Observations
SD92115WX
El Cerrito Stoneybluff, San Diego, CA 92115

El Cerrito StoneybluffSan Diego, CA 92115

Lat: 32.754096, Lon: -117.066705

Elevation: 420

Station Type: Davis Vantage Vue

http://stoneybluff.com

High Low Average
Temperature 85.3°F29.6°C 67.5°F19.7°C 73.6°F23.1°C
Dew Point 69.1°F20.6°C 63.9°F17.7°C 66.2°F19.0°C
Winds 9.2 mph 14.8 kmh Calm Calm 2.0 mph SW3.2 kmh SW
Wind Gusts 15.9 mph25.6 kmh -- 5.0 mph8.0 kmh
Humidity 89% 58% 78%
Pressure 29.85 in1010.8 mb 29.77 in1008.1 mb -
Precipitation 0.00 in0.0 mm - -
Hour Temp Dew Point Humidity Winds Wind Gusts Pressure Precip Precip Rate Daily Precip Total
12:00 AM 67.6°F19.8°C 64.2°F17.9°C 89% 0.2 mph SSE0.3 kmh SSE 2.0 mph3.2 kmh 29.84 in1010.5 mb 0.00 in0.0 mm 0.00 in0.0 mm 0.00 in0.0 mm
12:05 AM 67.6°F19.8°C 64.2°F17.9°C 89% Calm Calm 2.0 mph3.2 kmh 29.83 in1010.2 mb 0.00 in0.0 mm 0.00 in0.0 mm 0.00 in0.0 mm
12:10 AM 67.8°F19.9°C 64.4°F18.0°C 89% Calm Calm 2.0 mph3.2 kmh 29.83 in1010.2 mb 0.00 in0.0 mm 0.00 in0.0 mm 0.00 in0.0 mm
12:15 AM 67.8°F19.9°C 64.4°F18.0°C 89% 0.7 mph S1.1 kmh S 1.1 mph1.8 kmh 29.83 in1010.2 mb 0.00 in0.0 mm 0.00 in0.0 mm 0.00 in0.0 mm
12:20 AM 67.8°F19.9°C 64.4°F18.0°C 89% Calm Calm 1.1 mph1.8 kmh 29.83 in1010.2 mb 0.00 in0.0 mm 0.00 in0.0 mm 0.00 in0.0 mm
12:25 AM 68.0°F20.0°C 64.6°F18.1°C 89% Calm Calm -- 29.83 in1010.2 mb 0.00 in0.0 mm 0.00 in0.0 mm 0.00 in0.0 mm
12:30 AM 68.0°F20.0°C 64.6°F18.1°C 89% 0.2 mph SW0.3 kmh SW 1.1 mph1.8 kmh 29.83 in1010.2 mb 0.00 in0.0 mm 0.00 in0.0 mm 0.00 in0.0 mm
12:35 AM 68.0°F20.0°C 64.6°F18.1°C 89% 0.7 mph S1.1 kmh S 2.0 mph3.2 kmh 29.83 in1010.2 mb 0.00 in0.0 mm 0.00 in0.0 mm 0.00 in0.0 mm
12:40 AM 68.0°F20.0°C 64.6°F18.1°C 89% 0.7 mph SE1.1 kmh SE 2.0 mph3.2 kmh 29.83 in1010.2 mb 0.00 in0.0 mm 0.00 in0.0 mm 0.00 in0.0 mm
12:45 AM 68.0°F20.0°C 64.6°F18.1°C 89% 0.7 mph SW1.1 kmh SW 2.0 mph3.2 kmh 29.83 in1010.2 mb 0.00 in0.0 mm 0.00 in0.0 mm 0.00 in0.0 mm
12:50 AM 68.0°F20.0°C 64.6°F18.1°C 89% Calm Calm 2.0 mph3.2 kmh 29.83 in1010.2 mb 0.00 in0.0 mm 0.00 in0.0 mm 0.00 in0.0 mm
12:55 AM 68.0°F20.0°C 64.6°F18.1°C 89% 1.1 mph SW1.8 kmh SW 2.0 mph3.2 kmh 29.83 in1010.2 mb 0.00 in0.0 mm 0.00 in0.0 mm 0.00 in0.0 mm
01:00 AM 68.0°F20.0°C 64.6°F18.1°C 89% 0.9 mph SW1.4 kmh SW 2.0 mph3.2 kmh 29.83 in1010.2 mb 0.00 in0.0 mm 0.00 in0.0 mm 0.00 in0.0 mm
01:05 AM 68.0°F20.0°C 64.6°F18.1°C 89% 0.9 mph W1.4 kmh W 3.1 mph5.0 kmh 29.83 in1010.2 mb 0.00 in0.0 mm 0.00 in0.0 mm 0.00 in0.0 mm
01:10 AM 67.8°F19.9°C 64.4°F18.0°C 89% 0.7 mph WSW1.1 kmh WSW 2.0 mph3.2 kmh 29.83 in1010.2 mb 0.00 in0.0 mm 0.00 in0.0 mm 0.00 in0.0 mm
01:15 AM 67.8°F19.9°C 64.4°F18.0°C 89% Calm Calm 4.3 mph6.9 kmh 29.83 in1010.2 mb 0.00 in0.0 mm 0.00 in0.0 mm 0.00 in0.0 mm
01:20 AM 67.8°F19.9°C 64.4°F18.0°C 89% 1.3 mph WSW2.1 kmh WSW 3.1 mph5.0 kmh 29.83 in1010.2 mb 0.00 in0.0 mm 0.00 in0.0 mm 0.00 in0.0 mm
01:25 AM 67.8°F19.9°C 64.4°F18.0°C 89% 0.7 mph SSE1.1 kmh SSE 2.0 mph3.2 kmh 29.83 in1010.2 mb 0.00 in0.0 mm 0.00 in0.0 mm 0.00 in0.0 mm
01:30 AM 67.8°F19.9°C 64.4°F18.0°C 89% 1.1 mph SSW1.8 kmh SSW 2.0 mph3.2 kmh 29.83 in1010.2 mb 0.00 in0.0 mm 0.00 in0.0 mm 0.00 in0.0 mm
01:35 AM 67.8°F19.9°C 64.4°F18.0°C 89% 0.7 mph SW1.1 kmh SW 2.0 mph3.2 kmh 29.83 in1010.2 mb 0.00 in0.0 mm 0.00 in0.0 mm 0.00 in0.0 mm
01:40 AM 67.8°F19.9°C 64.4°F18.0°C 89% 0.2 mph W0.3 kmh W 3.1 mph5.0 kmh 29.83 in1010.2 mb 0.00 in0.0 mm 0.00 in0.0 mm 0.00 in0.0 mm
01:45 AM 67.8°F19.9°C 64.4°F18.0°C 89% Calm Calm 1.1 mph1.8 kmh 29.83 in1010.2 mb 0.00 in0.0 mm 0.00 in0.0 mm 0.00 in0.0 mm
01:50 AM 67.8°F19.9°C 64.4°F18.0°C 89% Calm Calm 1.1 mph1.8 kmh 29.83 in1010.2 mb 0.00 in0.0 mm 0.00 in0.0 mm 0.00 in0.0 mm
01:55 AM 67.8°F19.9°C 64.4°F18.0°C 89% 0.9 mph SW1.4 kmh SW 2.0 mph3.2 kmh 29.83 in1010.2 mb 0.00 in0.0 mm 0.00 in0.0 mm 0.00 in0.0 mm
02:00 AM 67.8°F19.9°C 64.4°F18.0°C 89% 1.3 mph WSW2.1 kmh WSW 3.1 mph5.0 kmh 29.83 in1010.2 mb 0.00 in0.0 mm 0.00 in0.0 mm 0.00 in0.0 mm
02:05 AM 67.8°F19.9°C 64.4°F18.0°C 89% 0.2 mph WSW0.3 kmh WSW 2.0 mph3.2 kmh 29.83 in1010.2 mb 0.00 in0.0 mm 0.00 in0.0 mm 0.00 in0.0 mm
02:10 AM 67.8°F19.9°C 64.4°F18.0°C 89% 0.4 mph WSW0.6 kmh WSW 2.0 mph3.2 kmh 29.83 in1010.2 mb 0.00 in0.0 mm 0.00 in0.0 mm 0.00 in0.0 mm
02:15 AM 67.8°F19.9°C 64.4°F18.0°C 89% Calm Calm 2.0 mph3.2 kmh 29.83 in1010.2 mb 0.00 in0.0 mm 0.00 in0.0 mm 0.00 in0.0 mm
02:20 AM 67.8°F19.9°C 64.4°F18.0°C 89% 1.1 mph SW1.8 kmh SW 3.1 mph5.0 kmh 29.82 in1009.8 mb 0.00 in0.0 mm 0.00 in0.0 mm 0.00 in0.0 mm
02:25 AM 67.6°F19.8°C 64.2°F17.9°C 89% 1.8 mph SW2.9 kmh SW 3.1 mph5.0 kmh 29.82 in1009.8 mb 0.00 in0.0 mm 0.00 in0.0 mm 0.00 in0.0 mm
02:30 AM 67.6°F19.8°C 64.2°F17.9°C 89% Calm Calm 3.1 mph5.0 kmh 29.83 in1010.2 mb 0.00 in0.0 mm 0.00 in0.0 mm 0.00 in0.0 mm
02:35 AM 67.6°F19.8°C 64.2°F17.9°C 89% 1.1 mph SW1.8 kmh SW 3.1 mph5.0 kmh 29.82 in1009.8 mb 0.00 in0.0 mm 0.00 in0.0 mm 0.00 in0.0 mm
02:40 AM 67.6°F19.8°C 64.0°F17.8°C 88% 0.2 mph SE0.3 kmh SE 3.1 mph5.0 kmh 29.82 in1009.8 mb 0.00 in0.0 mm 0.00 in0.0 mm 0.00 in0.0 mm
02:45 AM 67.6°F19.8°C 64.0°F17.8°C 88% 0.7 mph WSW1.1 kmh WSW 2.0 mph3.2 kmh 29.83 in1010.2 mb 0.00 in0.0 mm 0.00 in0.0 mm 0.00 in0.0 mm
02:50 AM 67.6°F19.8°C 64.0°F17.8°C 88% Calm Calm 1.1 mph1.8 kmh 29.83 in1010.2 mb 0.00 in0.0 mm 0.00 in0.0 mm 0.00 in0.0 mm
02:55 AM 67.6°F19.8°C 64.0°F17.8°C 88% Calm Calm 1.1 mph1.8 kmh 29.83 in1010.2 mb 0.00 in0.0 mm 0.00 in0.0 mm 0.00 in0.0 mm
03:00 AM 67.6°F19.8°C 64.0°F17.8°C 88% 0.2 mph WSW0.3 kmh WSW 1.1 mph1.8 kmh 29.82 in1009.8 mb 0.00 in0.0 mm 0.00 in0.0 mm 0.00 in0.0 mm
03:05 AM 67.6°F19.8°C 64.0°F17.8°C 88% Calm Calm -- 29.82 in1009.8 mb 0.00 in0.0 mm 0.00 in0.0 mm 0.00 in0.0 mm
03:10 AM 67.6°F19.8°C 64.0°F17.8°C 88% Calm Calm -- 29.83 in1010.2 mb 0.00 in0.0 mm 0.00 in0.0 mm 0.00 in0.0 mm
03:15 AM 67.6°F19.8°C 64.0°F17.8°C 88% Calm Calm -- 29.82 in1009.8 mb 0.00 in0.0 mm 0.00 in0.0 mm 0.00 in0.0 mm
03:20 AM 67.6°F19.8°C 64.0°F17.8°C 88% Calm Calm -- 29.82 in1009.8 mb 0.00 in0.0 mm 0.00 in0.0 mm 0.00 in0.0 mm
03:25 AM 67.6°F19.8°C 64.0°F17.8°C 88% Calm Calm -- 29.82 in1009.8 mb 0.00 in0.0 mm 0.00 in0.0 mm 0.00 in0.0 mm
03:30 AM 67.6°F19.8°C 64.0°F17.8°C 88% Calm Calm -- 29.82 in1009.8 mb 0.00 in0.0 mm 0.00 in0.0 mm 0.00 in0.0 mm
03:35 AM 67.6°F19.8°C 64.0°F17.8°C 88% Calm Calm -- 29.83 in1010.2 mb 0.00 in0.0 mm 0.00 in0.0 mm 0.00 in0.0 mm
03:40 AM 67.8°F19.9°C 64.2°F17.9°C 88% Calm Calm -- 29.83 in1010.2 mb 0.00 in0.0 mm 0.00 in0.0 mm 0.00 in0.0 mm
03:45 AM 67.8°F19.9°C 64.2°F17.9°C 88% Calm Calm -- 29.83 in1010.2 mb 0.00 in0.0 mm 0.00 in0.0 mm 0.00 in0.0 mm
03:50 AM 67.8°F19.9°C 64.2°F17.9°C 88% 0.9 mph WSW1.4 kmh WSW 2.0 mph3.2 kmh 29.82 in1009.8 mb 0.00 in0.0 mm 0.00 in0.0 mm 0.00 in0.0 mm
03:55 AM 68.0°F20.0°C 64.4°F18.0°C 88% 0.7 mph WSW1.1 kmh WSW 4.3 mph6.9 kmh 29.81 in1009.5 mb 0.00 in0.0 mm 0.00 in0.0 mm 0.00 in0.0 mm
04:00 AM 68.0°F20.0°C 64.4°F18.0°C 88% Calm Calm 1.1 mph1.8 kmh 29.80 in1009.1 mb 0.00 in0.0 mm 0.00 in0.0 mm 0.00 in0.0 mm
04:05 AM 67.8°F19.9°C 64.2°F17.9°C 88% Calm Calm 3.1 mph5.0 kmh 29.81 in1009.5 mb 0.00 in0.0 mm 0.00 in0.0 mm 0.00 in0.0 mm
04:10 AM 67.8°F19.9°C 64.2°F17.9°C 88% 1.3 mph SW2.1 kmh SW 3.1 mph5.0 kmh 29.80 in1009.1 mb 0.00 in0.0 mm 0.00 in0.0 mm 0.00 in0.0 mm
04:15 AM 67.8°F19.9°C 64.2°F17.9°C 88% 0.9 mph SW1.4 kmh SW 3.1 mph5.0 kmh 29.80 in1009.1 mb 0.00 in0.0 mm 0.00 in0.0 mm 0.00 in0.0 mm
04:20 AM 67.8°F19.9°C 64.2°F17.9°C 88% 2.9 mph WSW4.7 kmh WSW 4.3 mph6.9 kmh 29.80 in1009.1 mb 0.00 in0.0 mm 0.00 in0.0 mm 0.00 in0.0 mm
04:25 AM 67.8°F19.9°C 64.2°F17.9°C 88% 0.9 mph SW1.4 kmh SW 3.1 mph5.0 kmh 29.80 in1009.1 mb 0.00 in0.0 mm 0.00 in0.0 mm 0.00 in0.0 mm
04:30 AM 67.8°F19.9°C 64.2°F17.9°C 88% 0.9 mph S1.4 kmh S 3.1 mph5.0 kmh 29.80 in1009.1 mb 0.00 in0.0 mm 0.00 in0.0 mm 0.00 in0.0 mm
04:35 AM 67.6°F19.8°C 64.0°F17.8°C 88% Calm Calm 2.0 mph3.2 kmh 29.81 in1009.5 mb 0.00 in0.0 mm 0.00 in0.0 mm 0.00 in0.0 mm
04:40 AM 67.6°F19.8°C 64.0°F17.8°C 88% 1.3 mph SW2.1 kmh SW 3.1 mph5.0 kmh 29.80 in1009.1 mb 0.00 in0.0 mm 0.00 in0.0 mm 0.00 in0.0 mm
04:45 AM 67.6°F19.8°C 64.0°F17.8°C 88% 0.2 mph SW0.3 kmh SW 2.0 mph3.2 kmh 29.81 in1009.5 mb 0.00 in0.0 mm 0.00 in0.0 mm 0.00 in0.0 mm
04:50 AM 67.6°F19.8°C 64.0°F17.8°C 88% Calm Calm -- 29.81 in1009.5 mb 0.00 in0.0 mm 0.00 in0.0 mm 0.00 in0.0 mm
04:55 AM 67.5°F19.7°C 63.9°F17.7°C 88% 0.4 mph SSW0.6 kmh SSW 2.0 mph3.2 kmh 29.81 in1009.5 mb 0.00 in0.0 mm 0.00 in0.0 mm 0.00 in0.0 mm
05:00 AM 67.5°F19.7°C 63.9°F17.7°C 88% Calm Calm -- 29.81 in1009.5 mb 0.00 in0.0 mm 0.00 in0.0 mm 0.00 in0.0 mm
05:05 AM 67.5°F19.7°C 64.0°F17.8°C 89% 0.9 mph WSW1.4 kmh WSW 1.1 mph1.8 kmh 29.81 in1009.5 mb 0.00 in0.0 mm 0.00 in0.0 mm 0.00 in0.0 mm
05:10 AM 67.5°F19.7°C 64.0°F17.8°C 89% 0.7 mph WSW1.1 kmh WSW 3.1 mph5.0 kmh 29.81 in1009.5 mb 0.00 in0.0 mm 0.00 in0.0 mm 0.00 in0.0 mm
05:15 AM 67.5°F19.7°C 64.0°F17.8°C 89% Calm Calm 3.1 mph5.0 kmh 29.82 in1009.8 mb 0.00 in0.0 mm 0.00 in0.0 mm 0.00 in0.0 mm
05:20 AM 67.5°F19.7°C 64.0°F17.8°C 89% 0.4 mph WSW0.6 kmh WSW 3.1 mph5.0 kmh 29.82 in1009.8 mb 0.00 in0.0 mm 0.00 in0.0 mm 0.00 in0.0 mm
05:25 AM 67.5°F19.7°C 64.0°F17.8°C 89% 1.1 mph SW1.8 kmh SW 3.1 mph5.0 kmh 29.81 in1009.5 mb 0.00 in0.0 mm 0.00 in0.0 mm 0.00 in0.0 mm
05:30 AM 67.5°F19.7°C 64.0°F17.8°C 89% 1.6 mph SW2.6 kmh SW 3.1 mph5.0 kmh 29.82 in1009.8 mb 0.00 in0.0 mm 0.00 in0.0 mm 0.00 in0.0 mm
05:35 AM 67.5°F19.7°C 64.0°F17.8°C 89% Calm Calm 3.1 mph5.0 kmh 29.82 in1009.8 mb 0.00 in0.0 mm 0.00 in0.0 mm 0.00 in0.0 mm
05:40 AM 67.6°F19.8°C 64.2°F17.9°C 89% 0.2 mph WSW0.3 kmh WSW 1.1 mph1.8 kmh 29.82 in1009.8 mb 0.00 in0.0 mm 0.00 in0.0 mm 0.00 in0.0 mm
05:45 AM 67.6°F19.8°C 64.2°F17.9°C 89% 0.7 mph NW1.1 kmh NW 2.0 mph3.2 kmh 29.82 in1009.8 mb 0.00 in0.0 mm 0.00 in0.0 mm 0.00 in0.0 mm
05:50 AM 67.8°F19.9°C 64.4°F18.0°C 89% 1.8 mph SW2.9 kmh SW 3.1 mph5.0 kmh 29.83 in1010.2 mb 0.00 in0.0 mm 0.00 in0.0 mm 0.00 in0.0 mm
05:55 AM 67.8°F19.9°C 64.4°F18.0°C 89% 2.7 mph SW4.3 kmh SW 4.3 mph6.9 kmh 29.83 in1010.2 mb 0.00 in0.0 mm 0.00 in0.0 mm 0.00 in0.0 mm
06:00 AM 68.0°F20.0°C 64.6°F18.1°C 89% 1.6 mph SW2.6 kmh SW 3.1 mph5.0 kmh 29.83 in1010.2 mb 0.00 in0.0 mm 0.00 in0.0 mm 0.00 in0.0 mm
06:05 AM 68.2°F20.1°C 64.8°F18.2°C 89% 1.1 mph SW1.8 kmh SW 4.3 mph6.9 kmh 29.83 in1010.2 mb 0.00 in0.0 mm 0.00 in0.0 mm 0.00 in0.0 mm
06:10 AM 68.4°F20.2°C 64.9°F18.3°C 89% 1.1 mph SW1.8 kmh SW 4.3 mph6.9 kmh 29.83 in1010.2 mb 0.00 in0.0 mm 0.00 in0.0 mm 0.00 in0.0 mm
06:15 AM 68.4°F20.2°C 64.9°F18.3°C 89% 1.1 mph S1.8 kmh S 3.1 mph5.0 kmh 29.83 in1010.2 mb 0.00 in0.0 mm 0.00 in0.0 mm 0.00 in0.0 mm
06:20 AM 68.5°F20.3°C 65.1°F18.4°C 89% 1.3 mph WSW2.1 kmh WSW 3.1 mph5.0 kmh 29.83 in1010.2 mb 0.00 in0.0 mm 0.00 in0.0 mm 0.00 in0.0 mm
06:25 AM 68.5°F20.3°C 64.8°F18.2°C 88% 1.6 mph SW2.6 kmh SW 4.3 mph6.9 kmh 29.83 in1010.2 mb 0.00 in0.0 mm 0.00 in0.0 mm 0.00 in0.0 mm
06:30 AM 68.5°F20.3°C 64.8°F18.2°C 88% 0.7 mph SW1.1 kmh SW 4.3 mph6.9 kmh 29.83 in1010.2 mb 0.00 in0.0 mm 0.00 in0.0 mm 0.00 in0.0 mm
06:35 AM 68.7°F20.4°C 64.9°F18.3°C 88% 1.1 mph SSW1.8 kmh SSW 3.1 mph5.0 kmh 29.83 in1010.2 mb 0.00 in0.0 mm 0.00 in0.0 mm 0.00 in0.0 mm
06:40 AM 68.9°F20.5°C 65.1°F18.4°C 88% 1.1 mph SW1.8 kmh SW 5.4 mph8.7 kmh 29.82 in1009.8 mb 0.00 in0.0 mm 0.00 in0.0 mm 0.00 in0.0 mm
06:45 AM 69.4°F20.8°C 65.7°F18.7°C 88% Calm Calm 2.0 mph3.2 kmh 29.83 in1010.2 mb 0.00 in0.0 mm 0.00 in0.0 mm 0.00 in0.0 mm
06:51 AM 70.0°F21.1°C 66.0°F18.9°C 87% 1.1 mph SW1.8 kmh SW 4.3 mph6.9 kmh 29.83 in1010.2 mb 0.00 in0.0 mm 0.00 in0.0 mm 0.00 in0.0 mm
06:56 AM 70.2°F21.2°C 65.8°F18.8°C 86% Calm Calm 2.0 mph3.2 kmh 29.83 in1010.2 mb 0.00 in0.0 mm 0.00 in0.0 mm 0.00 in0.0 mm
07:01 AM 70.3°F21.3°C 66.0°F18.9°C 86% 0.2 mph SSW0.3 kmh SSW 3.1 mph5.0 kmh 29.83 in1010.2 mb 0.00 in0.0 mm 0.00 in0.0 mm 0.00 in0.0 mm
07:06 AM 71.1°F21.7°C 66.0°F18.9°C 84% 1.8 mph SSW2.9 kmh SSW 4.3 mph6.9 kmh 29.83 in1010.2 mb 0.00 in0.0 mm 0.00 in0.0 mm 0.00 in0.0 mm
07:11 AM 71.2°F21.8°C 66.2°F19.0°C 84% 2.9 mph SSW4.7 kmh SSW 4.3 mph6.9 kmh 29.83 in1010.2 mb 0.00 in0.0 mm 0.00 in0.0 mm 0.00 in0.0 mm
07:16 AM 71.2°F21.8°C 66.2°F19.0°C 84% 0.4 mph SSE0.6 kmh SSE 5.4 mph8.7 kmh 29.83 in1010.2 mb 0.00 in0.0 mm 0.00 in0.0 mm 0.00 in0.0 mm
07:21 AM 71.4°F21.9°C 66.4°F19.1°C 84% 0.7 mph SW1.1 kmh SW 3.1 mph5.0 kmh 29.83 in1010.2 mb 0.00 in0.0 mm 0.00 in0.0 mm 0.00 in0.0 mm
07:26 AM 71.8°F22.1°C 66.4°F19.1°C 83% 0.2 mph SW0.3 kmh SW 4.3 mph6.9 kmh 29.84 in1010.5 mb 0.00 in0.0 mm 0.00 in0.0 mm 0.00 in0.0 mm
07:31 AM 72.1°F22.3°C 66.4°F19.1°C 82% 0.9 mph SW1.4 kmh SW 3.1 mph5.0 kmh 29.83 in1010.2 mb 0.00 in0.0 mm 0.00 in0.0 mm 0.00 in0.0 mm
07:36 AM 72.3°F22.4°C 66.2°F19.0°C 81% 1.3 mph SW2.1 kmh SW 5.4 mph8.7 kmh 29.83 in1010.2 mb 0.00 in0.0 mm 0.00 in0.0 mm 0.00 in0.0 mm
07:41 AM 72.1°F22.3°C 66.4°F19.1°C 82% 0.9 mph WSW1.4 kmh WSW 5.4 mph8.7 kmh 29.83 in1010.2 mb 0.00 in0.0 mm 0.00 in0.0 mm 0.00 in0.0 mm
07:46 AM 72.3°F22.4°C 66.2°F19.0°C 81% 1.8 mph SSW2.9 kmh SSW 4.3 mph6.9 kmh 29.83 in1010.2 mb 0.00 in0.0 mm 0.00 in0.0 mm 0.00 in0.0 mm
07:51 AM 72.7°F22.6°C 66.6°F19.2°C 81% 0.4 mph SW0.6 kmh SW 5.4 mph8.7 kmh 29.83 in1010.2 mb 0.00 in0.0 mm 0.00 in0.0 mm 0.00 in0.0 mm
07:56 AM 73.0°F22.8°C 66.6°F19.2°C 80% 0.7 mph SSW1.1 kmh SSW 5.4 mph8.7 kmh 29.83 in1010.2 mb 0.00 in0.0 mm 0.00 in0.0 mm 0.00 in0.0 mm
08:01 AM 73.8°F23.2°C 66.9°F19.4°C 79% 0.4 mph W0.6 kmh W 3.1 mph5.0 kmh 29.83 in1010.2 mb 0.00 in0.0 mm 0.00 in0.0 mm 0.00 in0.0 mm
08:06 AM 73.6°F23.1°C 66.4°F19.1°C 78% 0.4 mph NW0.6 kmh NW 3.1 mph5.0 kmh 29.83 in1010.2 mb 0.00 in0.0 mm 0.00 in0.0 mm 0.00 in0.0 mm
08:11 AM 73.2°F22.9°C 66.7°F19.3°C 80% 2.0 mph NW3.2 kmh NW 4.3 mph6.9 kmh 29.83 in1010.2 mb 0.00 in0.0 mm 0.00 in0.0 mm 0.00 in0.0 mm
08:16 AM 73.2°F22.9°C 66.4°F19.1°C 79% 1.3 mph WSW2.1 kmh WSW 4.3 mph6.9 kmh 29.83 in1010.2 mb 0.00 in0.0 mm 0.00 in0.0 mm 0.00 in0.0 mm
08:21 AM 73.2°F22.9°C 66.7°F19.3°C 80% 1.8 mph W2.9 kmh W 4.3 mph6.9 kmh 29.83 in1010.2 mb 0.00 in0.0 mm 0.00 in0.0 mm 0.00 in0.0 mm
08:26 AM 73.2°F22.9°C 66.7°F19.3°C 80% 1.8 mph NW2.9 kmh NW 5.4 mph8.7 kmh 29.84 in1010.5 mb 0.00 in0.0 mm 0.00 in0.0 mm 0.00 in0.0 mm
08:31 AM 73.6°F23.1°C 67.1°F19.5°C 80% 0.9 mph N1.4 kmh N 5.4 mph8.7 kmh 29.84 in1010.5 mb 0.00 in0.0 mm 0.00 in0.0 mm 0.00 in0.0 mm
08:36 AM 73.9°F23.3°C 67.1°F19.5°C 79% 0.9 mph WSW1.4 kmh WSW 5.4 mph8.7 kmh 29.83 in1010.2 mb 0.00 in0.0 mm 0.00 in0.0 mm 0.00 in0.0 mm
08:41 AM 74.7°F23.7°C 67.3°F19.6°C 78% 0.2 mph NW0.3 kmh NW 3.1 mph5.0 kmh 29.84 in1010.5 mb 0.00 in0.0 mm 0.00 in0.0 mm 0.00 in0.0 mm
08:46 AM 74.8°F23.8°C 66.7°F19.3°C 76% 0.9 mph NW1.4 kmh NW 4.3 mph6.9 kmh 29.84 in1010.5 mb 0.00 in0.0 mm 0.00 in0.0 mm 0.00 in0.0 mm
08:51 AM 75.4°F24.1°C 67.3°F19.6°C 76% 0.9 mph N1.4 kmh N 3.1 mph5.0 kmh 29.83 in1010.2 mb 0.00 in0.0 mm 0.00 in0.0 mm 0.00 in0.0 mm
08:56 AM 75.9°F24.4°C 67.5°F19.7°C 75% 0.9 mph WNW1.4 kmh WNW 2.0 mph3.2 kmh 29.84 in1010.5 mb 0.00 in0.0 mm 0.00 in0.0 mm 0.00 in0.0 mm
09:01 AM 75.9°F24.4°C 67.5°F19.7°C 75% 3.8 mph SW6.1 kmh SW 6.3 mph10.1 kmh 29.84 in1010.5 mb 0.00 in0.0 mm 0.00 in0.0 mm 0.00 in0.0 mm
09:06 AM 76.3°F24.6°C 67.8°F19.9°C 75% 1.3 mph SW2.1 kmh SW 6.3 mph10.1 kmh 29.83 in1010.2 mb 0.00 in0.0 mm 0.00 in0.0 mm 0.00 in0.0 mm
09:11 AM 77.5°F25.3°C 68.2°F20.1°C 73% 2.2 mph S3.5 kmh S 5.4 mph8.7 kmh 29.83 in1010.2 mb 0.00 in0.0 mm 0.00 in0.0 mm 0.00 in0.0 mm
09:16 AM 77.7°F25.4°C 67.1°F19.5°C 70% 0.2 mph E0.3 kmh E 5.4 mph8.7 kmh 29.83 in1010.2 mb 0.00 in0.0 mm 0.00 in0.0 mm 0.00 in0.0 mm
09:21 AM 77.4°F25.2°C 67.3°F19.6°C 71% 4.5 mph SSW7.2 kmh SSW 8.5 mph13.7 kmh 29.84 in1010.5 mb 0.00 in0.0 mm 0.00 in0.0 mm 0.00 in0.0 mm
09:26 AM 77.2°F25.1°C 67.1°F19.5°C 71% 6.0 mph SW9.7 kmh SW 9.6 mph15.4 kmh 29.84 in1010.5 mb 0.00 in0.0 mm 0.00 in0.0 mm 0.00 in0.0 mm
09:31 AM 76.8°F24.9°C 67.1°F19.5°C 72% 4.0 mph SW6.4 kmh SW 8.5 mph13.7 kmh 29.84 in1010.5 mb 0.00 in0.0 mm 0.00 in0.0 mm 0.00 in0.0 mm
09:36 AM 75.9°F24.4°C 66.6°F19.2°C 73% 4.3 mph SW6.9 kmh SW 8.5 mph13.7 kmh 29.82 in1009.8 mb 0.00 in0.0 mm 0.00 in0.0 mm 0.00 in0.0 mm
09:41 AM 75.6°F24.2°C 67.1°F19.5°C 75% 1.3 mph SW2.1 kmh SW 6.3 mph10.1 kmh 29.82 in1009.8 mb 0.00 in0.0 mm 0.00 in0.0 mm 0.00 in0.0 mm
09:46 AM 75.7°F24.3°C 67.3°F19.6°C 75% Calm Calm 3.1 mph5.0 kmh 29.82 in1009.8 mb 0.00 in0.0 mm 0.00 in0.0 mm 0.00 in0.0 mm
09:51 AM 76.3°F24.6°C 67.5°F19.7°C 74% 0.4 mph SW0.6 kmh SW 2.0 mph3.2 kmh 29.82 in1009.8 mb 0.00 in0.0 mm 0.00 in0.0 mm 0.00 in0.0 mm
09:56 AM 76.8°F24.9°C 67.5°F19.7°C 73% Calm Calm 1.1 mph1.8 kmh 29.81 in1009.5 mb 0.00 in0.0 mm 0.00 in0.0 mm 0.00 in0.0 mm
10:01 AM 77.4°F25.2°C 67.6°F19.8°C 72% Calm Calm 2.0 mph3.2 kmh 29.81 in1009.5 mb 0.00 in0.0 mm 0.00 in0.0 mm 0.00 in0.0 mm
10:06 AM 77.9°F25.5°C 67.8°F19.9°C 71% Calm Calm 1.1 mph1.8 kmh 29.81 in1009.5 mb 0.00 in0.0 mm 0.00 in0.0 mm 0.00 in0.0 mm
10:11 AM 78.3°F25.7°C 67.6°F19.8°C 70% 1.3 mph NW2.1 kmh NW 3.1 mph5.0 kmh 29.81 in1009.5 mb 0.00 in0.0 mm 0.00 in0.0 mm 0.00 in0.0 mm
10:16 AM 78.4°F25.8°C 67.8°F19.9°C 70% 0.4 mph SE0.6 kmh SE 3.1 mph5.0 kmh 29.81 in1009.5 mb 0.00 in0.0 mm 0.00 in0.0 mm 0.00 in0.0 mm
10:21 AM 79.0°F26.1°C 68.0°F20.0°C 69% 0.2 mph NW0.3 kmh NW 3.1 mph5.0 kmh 29.81 in1009.5 mb 0.00 in0.0 mm 0.00 in0.0 mm 0.00 in0.0 mm
10:26 AM 79.9°F26.6°C 68.4°F20.2°C 68% 2.2 mph NE3.5 kmh NE 4.3 mph6.9 kmh 29.80 in1009.1 mb 0.00 in0.0 mm 0.00 in0.0 mm 0.00 in0.0 mm
10:31 AM 80.2°F26.8°C 68.4°F20.2°C 67% 0.4 mph S0.6 kmh S 3.1 mph5.0 kmh 29.80 in1009.1 mb 0.00 in0.0 mm 0.00 in0.0 mm 0.00 in0.0 mm
10:36 AM 80.8°F27.1°C 68.4°F20.2°C 66% 0.9 mph NW1.4 kmh NW 3.1 mph5.0 kmh 29.80 in1009.1 mb 0.00 in0.0 mm 0.00 in0.0 mm 0.00 in0.0 mm
10:41 AM 81.0°F27.2°C 68.5°F20.3°C 66% 2.9 mph SW4.7 kmh SW 4.3 mph6.9 kmh 29.80 in1009.1 mb 0.00 in0.0 mm 0.00 in0.0 mm 0.00 in0.0 mm
10:46 AM 81.1°F27.3°C 68.7°F20.4°C 66% Calm Calm 6.3 mph10.1 kmh 29.80 in1009.1 mb 0.00 in0.0 mm 0.00 in0.0 mm 0.00 in0.0 mm
10:51 AM 82.2°F27.9°C 68.9°F20.5°C 64% Calm Calm 2.0 mph3.2 kmh 29.80 in1009.1 mb 0.00 in0.0 mm 0.00 in0.0 mm 0.00 in0.0 mm
10:56 AM 82.0°F27.8°C 68.7°F20.4°C 64% 6.3 mph SW10.1 kmh SW 12.8 mph20.6 kmh 29.80 in1009.1 mb 0.00 in0.0 mm 0.00 in0.0 mm 0.00 in0.0 mm
11:01 AM 81.7°F27.6°C 67.8°F19.9°C 63% 8.3 mph SW13.4 kmh SW 13.9 mph22.4 kmh 29.80 in1009.1 mb 0.00 in0.0 mm 0.00 in0.0 mm 0.00 in0.0 mm
11:06 AM 81.1°F27.3°C 68.2°F20.1°C 65% 6.5 mph WSW10.5 kmh WSW 11.6 mph18.7 kmh 29.80 in1009.1 mb 0.00 in0.0 mm 0.00 in0.0 mm 0.00 in0.0 mm
11:11 AM 80.8°F27.1°C 68.0°F20.0°C 65% 8.3 mph WSW13.4 kmh WSW 12.8 mph20.6 kmh 29.79 in1008.8 mb 0.00 in0.0 mm 0.00 in0.0 mm 0.00 in0.0 mm
11:16 AM 80.8°F27.1°C 68.0°F20.0°C 65% 6.0 mph W9.7 kmh W 11.6 mph18.7 kmh 29.80 in1009.1 mb 0.00 in0.0 mm 0.00 in0.0 mm 0.00 in0.0 mm
11:21 AM 81.1°F27.3°C 67.8°F19.9°C 64% 4.0 mph WSW6.4 kmh WSW 9.6 mph15.4 kmh 29.80 in1009.1 mb 0.00 in0.0 mm 0.00 in0.0 mm 0.00 in0.0 mm
11:26 AM 82.0°F27.8°C 68.7°F20.4°C 64% 2.9 mph SW4.7 kmh SW 10.5 mph16.9 kmh 29.79 in1008.8 mb 0.00 in0.0 mm 0.00 in0.0 mm 0.00 in0.0 mm
11:31 AM 83.3°F28.5°C 68.9°F20.5°C 62% 3.4 mph W5.5 kmh W 10.5 mph16.9 kmh 29.79 in1008.8 mb 0.00 in0.0 mm 0.00 in0.0 mm 0.00 in0.0 mm
11:36 AM 84.2°F29.0°C 68.7°F20.4°C 60% 7.4 mph SW11.9 kmh SW 11.6 mph18.7 kmh 29.79 in1008.8 mb 0.00 in0.0 mm 0.00 in0.0 mm 0.00 in0.0 mm
11:41 AM 84.6°F29.2°C 69.1°F20.6°C 60% 7.2 mph S11.6 kmh S 10.5 mph16.9 kmh 29.79 in1008.8 mb 0.00 in0.0 mm 0.00 in0.0 mm 0.00 in0.0 mm
11:46 AM 84.6°F29.2°C 68.7°F20.4°C 59% 6.0 mph SW9.7 kmh SW 10.5 mph16.9 kmh 29.79 in1008.8 mb 0.00 in0.0 mm 0.00 in0.0 mm 0.00 in0.0 mm
11:51 AM 84.9°F29.4°C 68.9°F20.5°C 59% 6.3 mph SSE10.1 kmh SSE 9.6 mph15.4 kmh 29.79 in1008.8 mb 0.00 in0.0 mm 0.00 in0.0 mm 0.00 in0.0 mm
11:56 AM 84.6°F29.2°C 68.7°F20.4°C 59% 4.5 mph SW7.2 kmh SW 12.8 mph20.6 kmh 29.79 in1008.8 mb 0.00 in0.0 mm 0.00 in0.0 mm 0.00 in0.0 mm
12:01 PM 84.9°F29.4°C 68.5°F20.3°C 58% 7.6 mph WSW12.2 kmh WSW 12.8 mph20.6 kmh 29.79 in1008.8 mb 0.00 in0.0 mm 0.00 in0.0 mm 0.00 in0.0 mm
12:06 PM 85.3°F29.6°C 68.9°F20.5°C 58% 6.5 mph SSW10.5 kmh SSW 14.8 mph23.8 kmh 29.79 in1008.8 mb 0.00 in0.0 mm 0.00 in0.0 mm 0.00 in0.0 mm
12:11 PM 84.4°F29.1°C 68.5°F20.3°C 59% 2.9 mph W4.7 kmh W 9.6 mph15.4 kmh 29.80 in1009.1 mb 0.00 in0.0 mm 0.00 in0.0 mm 0.00 in0.0 mm
12:16 PM 84.4°F29.1°C 68.5°F20.3°C 59% 6.7 mph SW10.8 kmh SW 12.8 mph20.6 kmh 29.79 in1008.8 mb 0.00 in0.0 mm 0.00 in0.0 mm 0.00 in0.0 mm
12:21 PM 84.4°F29.1°C 68.5°F20.3°C 59% 6.9 mph S11.1 kmh S 13.9 mph22.4 kmh 29.79 in1008.8 mb 0.00 in0.0 mm 0.00 in0.0 mm 0.00 in0.0 mm
12:26 PM 83.7°F28.7°C 68.4°F20.2°C 60% 7.6 mph SW12.2 kmh SW 11.6 mph18.7 kmh 29.79 in1008.8 mb 0.00 in0.0 mm 0.00 in0.0 mm 0.00 in0.0 mm
12:31 PM 83.5°F28.6°C 68.2°F20.1°C 60% 6.9 mph SW11.1 kmh SW 12.8 mph20.6 kmh 29.79 in1008.8 mb 0.00 in0.0 mm 0.00 in0.0 mm 0.00 in0.0 mm
12:36 PM 83.3°F28.5°C 68.4°F20.2°C 61% 7.6 mph WSW12.2 kmh WSW 11.6 mph18.7 kmh 29.79 in1008.8 mb 0.00 in0.0 mm 0.00 in0.0 mm 0.00 in0.0 mm
12:41 PM 83.5°F28.6°C 68.2°F20.1°C 60% 7.2 mph SW11.6 kmh SW 9.6 mph15.4 kmh 29.79 in1008.8 mb 0.00 in0.0 mm 0.00 in0.0 mm 0.00 in0.0 mm
12:46 PM 82.9°F28.3°C 68.2°F20.1°C 61% 8.1 mph W13.0 kmh W 14.8 mph23.8 kmh 29.78 in1008.5 mb 0.00 in0.0 mm 0.00 in0.0 mm 0.00 in0.0 mm
12:51 PM 82.8°F28.2°C 68.4°F20.2°C 62% 8.3 mph WSW13.4 kmh WSW 13.9 mph22.4 kmh 29.78 in1008.5 mb 0.00 in0.0 mm 0.00 in0.0 mm 0.00 in0.0 mm
12:56 PM 83.5°F28.6°C 68.2°F20.1°C 60% 5.6 mph SSW9.0 kmh SSW 9.6 mph15.4 kmh 29.80 in1009.1 mb 0.00 in0.0 mm 0.00 in0.0 mm 0.00 in0.0 mm
01:01 PM 84.4°F29.1°C 68.5°F20.3°C 59% 7.2 mph SSW11.6 kmh SSW 10.5 mph16.9 kmh 29.79 in1008.8 mb 0.00 in0.0 mm 0.00 in0.0 mm 0.00 in0.0 mm
01:06 PM 84.0°F28.9°C 68.2°F20.1°C 59% 7.4 mph SW11.9 kmh SW 13.9 mph22.4 kmh 29.79 in1008.8 mb 0.00 in0.0 mm 0.00 in0.0 mm 0.00 in0.0 mm
01:11 PM 83.3°F28.5°C 68.0°F20.0°C 60% 6.9 mph SW11.1 kmh SW 11.6 mph18.7 kmh 29.78 in1008.5 mb 0.00 in0.0 mm 0.00 in0.0 mm 0.00 in0.0 mm
01:16 PM 83.3°F28.5°C 68.0°F20.0°C 60% 6.7 mph SW10.8 kmh SW 11.6 mph18.7 kmh 29.79 in1008.8 mb 0.00 in0.0 mm 0.00 in0.0 mm 0.00 in0.0 mm
01:21 PM 82.6°F28.1°C 67.3°F19.6°C 60% 8.3 mph SW13.4 kmh SW 11.6 mph18.7 kmh 29.79 in1008.8 mb 0.00 in0.0 mm 0.00 in0.0 mm 0.00 in0.0 mm
01:26 PM 82.2°F27.9°C 67.8°F19.9°C 62% 8.3 mph S13.4 kmh S 14.8 mph23.8 kmh 29.78 in1008.5 mb 0.00 in0.0 mm 0.00 in0.0 mm 0.00 in0.0 mm
01:31 PM 82.2°F27.9°C 67.8°F19.9°C 62% 6.7 mph SW10.8 kmh SW 11.6 mph18.7 kmh 29.79 in1008.8 mb 0.00 in0.0 mm 0.00 in0.0 mm 0.00 in0.0 mm
01:36 PM 81.9°F27.7°C 67.6°F19.8°C 62% 6.7 mph WSW10.8 kmh WSW 9.6 mph15.4 kmh 29.79 in1008.8 mb 0.00 in0.0 mm 0.00 in0.0 mm 0.00 in0.0 mm
01:41 PM 82.2°F27.9°C 68.9°F20.5°C 64% 4.7 mph SW7.6 kmh SW 10.5 mph16.9 kmh 29.78 in1008.5 mb 0.00 in0.0 mm 0.00 in0.0 mm 0.00 in0.0 mm
01:46 PM 82.8°F28.2°C 68.0°F20.0°C 61% 6.5 mph SW10.5 kmh SW 12.8 mph20.6 kmh 29.79 in1008.8 mb 0.00 in0.0 mm 0.00 in0.0 mm 0.00 in0.0 mm
01:51 PM 82.9°F28.3°C 67.6°F19.8°C 60% 7.6 mph SW12.2 kmh SW 11.6 mph18.7 kmh 29.79 in1008.8 mb 0.00 in0.0 mm 0.00 in0.0 mm 0.00 in0.0 mm
01:56 PM 82.8°F28.2°C 68.0°F20.0°C 61% 7.4 mph SW11.9 kmh SW 11.6 mph18.7 kmh 29.78 in1008.5 mb 0.00 in0.0 mm 0.00 in0.0 mm 0.00 in0.0 mm
02:01 PM 82.4°F28.0°C 67.6°F19.8°C 61% 6.9 mph S11.1 kmh S 11.6 mph18.7 kmh 29.78 in1008.5 mb 0.00 in0.0 mm 0.00 in0.0 mm 0.00 in0.0 mm
02:06 PM 82.4°F28.0°C 67.6°F19.8°C 61% 6.7 mph WSW10.8 kmh WSW 15.9 mph25.6 kmh 29.78 in1008.5 mb 0.00 in0.0 mm 0.00 in0.0 mm 0.00 in0.0 mm
02:11 PM 83.8°F28.8°C 68.0°F20.0°C 59% 4.7 mph SSW7.6 kmh SSW 9.6 mph15.4 kmh 29.77 in1008.1 mb 0.00 in0.0 mm 0.00 in0.0 mm 0.00 in0.0 mm
02:16 PM 83.8°F28.8°C 68.0°F20.0°C 59% 6.9 mph SW11.1 kmh SW 11.6 mph18.7 kmh 29.77 in1008.1 mb 0.00 in0.0 mm 0.00 in0.0 mm 0.00 in0.0 mm
02:21 PM 84.6°F29.2°C 68.2°F20.1°C 58% 7.2 mph SW11.6 kmh SW 11.6 mph18.7 kmh 29.78 in1008.5 mb 0.00 in0.0 mm 0.00 in0.0 mm 0.00 in0.0 mm
02:26 PM 84.0°F28.9°C 68.2°F20.1°C 59% 6.0 mph SW9.7 kmh SW 11.6 mph18.7 kmh 29.78 in1008.5 mb 0.00 in0.0 mm 0.00 in0.0 mm 0.00 in0.0 mm
02:31 PM 84.0°F28.9°C 67.6°F19.8°C 58% 8.9 mph SW14.3 kmh SW 13.9 mph22.4 kmh 29.78 in1008.5 mb 0.00 in0.0 mm 0.00 in0.0 mm 0.00 in0.0 mm
02:36 PM 83.8°F28.8°C 68.0°F20.0°C 59% 8.3 mph SW13.4 kmh SW 11.6 mph18.7 kmh 29.77 in1008.1 mb 0.00 in0.0 mm 0.00 in0.0 mm 0.00 in0.0 mm
02:41 PM 83.5°F28.6°C 68.5°F20.3°C 61% 5.8 mph SW9.3 kmh SW 11.6 mph18.7 kmh 29.77 in1008.1 mb 0.00 in0.0 mm 0.00 in0.0 mm 0.00 in0.0 mm
02:46 PM 83.1°F28.4°C 67.8°F19.9°C 60% 8.1 mph SSW13.0 kmh SSW 12.8 mph20.6 kmh 29.78 in1008.5 mb 0.00 in0.0 mm 0.00 in0.0 mm 0.00 in0.0 mm
02:51 PM 82.6°F28.1°C 67.8°F19.9°C 61% 9.2 mph SW14.8 kmh SW 14.8 mph23.8 kmh 29.78 in1008.5 mb 0.00 in0.0 mm 0.00 in0.0 mm 0.00 in0.0 mm
02:56 PM 81.5°F27.5°C 67.3°F19.6°C 62% 7.6 mph S12.2 kmh S 14.8 mph23.8 kmh 29.78 in1008.5 mb 0.00 in0.0 mm 0.00 in0.0 mm 0.00 in0.0 mm
03:01 PM 80.6°F27.0°C 67.3°F19.6°C 64% 7.2 mph SW11.6 kmh SW 12.8 mph20.6 kmh 29.79 in1008.8 mb 0.00 in0.0 mm 0.00 in0.0 mm 0.00 in0.0 mm
03:06 PM 79.9°F26.6°C 67.1°F19.5°C 65% 6.9 mph SSW11.1 kmh SSW 11.6 mph18.7 kmh 29.79 in1008.8 mb 0.00 in0.0 mm 0.00 in0.0 mm 0.00 in0.0 mm
03:11 PM 78.6°F25.9°C 66.7°F19.3°C 67% 8.5 mph SSW13.7 kmh SSW 14.8 mph23.8 kmh 29.81 in1009.5 mb 0.00 in0.0 mm 0.00 in0.0 mm 0.00 in0.0 mm
03:16 PM 77.4°F25.2°C 66.4°F19.1°C 69% 4.7 mph SW7.6 kmh SW 10.5 mph16.9 kmh 29.80 in1009.1 mb 0.00 in0.0 mm 0.00 in0.0 mm 0.00 in0.0 mm
03:21 PM 76.3°F24.6°C 66.2°F19.0°C 71% 5.4 mph SW8.7 kmh SW 11.6 mph18.7 kmh 29.80 in1009.1 mb 0.00 in0.0 mm 0.00 in0.0 mm 0.00 in0.0 mm
03:26 PM 75.6°F24.2°C 66.4°F19.1°C 73% 5.4 mph SW8.7 kmh SW 10.5 mph16.9 kmh 29.80 in1009.1 mb 0.00 in0.0 mm 0.00 in0.0 mm 0.00 in0.0 mm
03:31 PM 74.8°F23.8°C 66.0°F18.9°C 74% 4.5 mph SSW7.2 kmh SSW 8.5 mph13.7 kmh 29.80 in1009.1 mb 0.00 in0.0 mm 0.00 in0.0 mm 0.00 in0.0 mm
03:36 PM 74.8°F23.8°C 66.4°F19.1°C 75% 4.0 mph SW6.4 kmh SW 9.6 mph15.4 kmh 29.80 in1009.1 mb 0.00 in0.0 mm 0.00 in0.0 mm 0.00 in0.0 mm
03:41 PM 74.7°F23.7°C 66.2°F19.0°C 75% 4.7 mph W7.6 kmh W 9.6 mph15.4 kmh 29.80 in1009.1 mb 0.00 in0.0 mm 0.00 in0.0 mm 0.00 in0.0 mm
03:46 PM 75.0°F23.9°C 66.6°F19.2°C 75% 3.1 mph SW5.0 kmh SW 7.4 mph11.9 kmh 29.80 in1009.1 mb 0.00 in0.0 mm 0.00 in0.0 mm 0.00 in0.0 mm
03:51 PM 75.0°F23.9°C 66.2°F19.0°C 74% 4.9 mph SW7.9 kmh SW 10.5 mph16.9 kmh 29.79 in1008.8 mb 0.00 in0.0 mm 0.00 in0.0 mm 0.00 in0.0 mm
03:56 PM 75.0°F23.9°C 66.6°F19.2°C 75% 3.6 mph WSW5.8 kmh WSW 6.3 mph10.1 kmh 29.79 in1008.8 mb 0.00 in0.0 mm 0.00 in0.0 mm 0.00 in0.0 mm
04:01 PM 75.6°F24.2°C 66.7°F19.3°C 74% Calm Calm 2.0 mph3.2 kmh 29.79 in1008.8 mb 0.00 in0.0 mm 0.00 in0.0 mm 0.00 in0.0 mm
04:06 PM 76.3°F24.6°C 66.6°F19.2°C 72% 3.1 mph SW5.0 kmh SW 6.3 mph10.1 kmh 29.79 in1008.8 mb 0.00 in0.0 mm 0.00 in0.0 mm 0.00 in0.0 mm
04:11 PM 76.8°F24.9°C 67.1°F19.5°C 72% 1.1 mph WSW1.8 kmh WSW 4.3 mph6.9 kmh 29.79 in1008.8 mb 0.00 in0.0 mm 0.00 in0.0 mm 0.00 in0.0 mm
04:16 PM 77.0°F25.0°C 66.9°F19.4°C 71% 2.0 mph S3.2 kmh S 3.1 mph5.0 kmh 29.79 in1008.8 mb 0.00 in0.0 mm 0.00 in0.0 mm 0.00 in0.0 mm
04:21 PM 77.4°F25.2°C 67.3°F19.6°C 71% 3.6 mph SW5.8 kmh SW 5.4 mph8.7 kmh 29.79 in1008.8 mb 0.00 in0.0 mm 0.00 in0.0 mm 0.00 in0.0 mm
04:26 PM 77.2°F25.1°C 67.1°F19.5°C 71% Calm Calm 5.4 mph8.7 kmh 29.78 in1008.5 mb 0.00 in0.0 mm 0.00 in0.0 mm 0.00 in0.0 mm
04:31 PM 77.4°F25.2°C 66.7°F19.3°C 70% 3.4 mph S5.5 kmh S 7.4 mph11.9 kmh 29.78 in1008.5 mb 0.00 in0.0 mm 0.00 in0.0 mm 0.00 in0.0 mm
04:36 PM 77.5°F25.3°C 66.9°F19.4°C 70% 3.8 mph S6.1 kmh S 7.4 mph11.9 kmh 29.79 in1008.8 mb 0.00 in0.0 mm 0.00 in0.0 mm 0.00 in0.0 mm
04:41 PM 77.2°F25.1°C 67.1°F19.5°C 71% 2.7 mph S4.3 kmh S 6.3 mph10.1 kmh 29.79 in1008.8 mb 0.00 in0.0 mm 0.00 in0.0 mm 0.00 in0.0 mm
04:46 PM 77.0°F25.0°C 66.9°F19.4°C 71% 3.8 mph SW6.1 kmh SW 6.3 mph10.1 kmh 29.79 in1008.8 mb 0.00 in0.0 mm 0.00 in0.0 mm 0.00 in0.0 mm
04:51 PM 76.5°F24.7°C 66.4°F19.1°C 71% 2.9 mph W4.7 kmh W 6.3 mph10.1 kmh 29.80 in1009.1 mb 0.00 in0.0 mm 0.00 in0.0 mm 0.00 in0.0 mm
04:56 PM 76.1°F24.5°C 66.4°F19.1°C 72% 4.5 mph SW7.2 kmh SW 9.6 mph15.4 kmh 29.80 in1009.1 mb 0.00 in0.0 mm 0.00 in0.0 mm 0.00 in0.0 mm
05:01 PM 75.7°F24.3°C 66.4°F19.1°C 73% 6.3 mph SSW10.1 kmh SSW 8.5 mph13.7 kmh 29.79 in1008.8 mb 0.00 in0.0 mm 0.00 in0.0 mm 0.00 in0.0 mm
05:06 PM 75.0°F23.9°C 66.2°F19.0°C 74% 5.1 mph SW8.2 kmh SW 9.6 mph15.4 kmh 29.79 in1008.8 mb 0.00 in0.0 mm 0.00 in0.0 mm 0.00 in0.0 mm
05:11 PM 74.7°F23.7°C 66.2°F19.0°C 75% 2.9 mph WSW4.7 kmh WSW 6.3 mph10.1 kmh 29.79 in1008.8 mb 0.00 in0.0 mm 0.00 in0.0 mm 0.00 in0.0 mm
05:16 PM 74.3°F23.5°C 66.2°F19.0°C 76% 2.7 mph SW4.3 kmh SW 5.4 mph8.7 kmh 29.79 in1008.8 mb 0.00 in0.0 mm 0.00 in0.0 mm 0.00 in0.0 mm
05:21 PM 74.1°F23.4°C 66.4°F19.1°C 77% 0.2 mph SW0.3 kmh SW 3.1 mph5.0 kmh 29.79 in1008.8 mb 0.00 in0.0 mm 0.00 in0.0 mm 0.00 in0.0 mm
05:26 PM 73.9°F23.3°C 66.2°F19.0°C 77% 2.7 mph SW4.3 kmh SW 5.4 mph8.7 kmh 29.79 in1008.8 mb 0.00 in0.0 mm 0.00 in0.0 mm 0.00 in0.0 mm
05:31 PM 73.9°F23.3°C 66.2°F19.0°C 77% 0.7 mph SW1.1 kmh SW 5.4 mph8.7 kmh 29.78 in1008.5 mb 0.00 in0.0 mm 0.00 in0.0 mm 0.00 in0.0 mm
05:36 PM 73.9°F23.3°C 66.2°F19.0°C 77% 2.0 mph SW3.2 kmh SW 4.3 mph6.9 kmh 29.79 in1008.8 mb 0.00 in0.0 mm 0.00 in0.0 mm 0.00 in0.0 mm
05:41 PM 73.9°F23.3°C 66.2°F19.0°C 77% 1.8 mph SW2.9 kmh SW 4.3 mph6.9 kmh 29.78 in1008.5 mb 0.00 in0.0 mm 0.00 in0.0 mm 0.00 in0.0 mm
05:46 PM 73.9°F23.3°C 66.2°F19.0°C 77% Calm Calm -- 29.78 in1008.5 mb 0.00 in0.0 mm 0.00 in0.0 mm 0.00 in0.0 mm
05:51 PM 73.9°F23.3°C 66.2°F19.0°C 77% Calm Calm 1.1 mph1.8 kmh 29.78 in1008.5 mb 0.00 in0.0 mm 0.00 in0.0 mm 0.00 in0.0 mm
05:56 PM 74.1°F23.4°C 66.4°F19.1°C 77% Calm Calm 3.1 mph5.0 kmh 29.79 in1008.8 mb 0.00 in0.0 mm 0.00 in0.0 mm 0.00 in0.0 mm
06:01 PM 74.5°F23.6°C 66.7°F19.3°C 77% Calm Calm 2.0 mph3.2 kmh 29.79 in1008.8 mb 0.00 in0.0 mm 0.00 in0.0 mm 0.00 in0.0 mm
06:06 PM 74.5°F23.6°C 66.4°F19.1°C 76% 2.0 mph SW3.2 kmh SW 4.3 mph6.9 kmh 29.80 in1009.1 mb 0.00 in0.0 mm 0.00 in0.0 mm 0.00 in0.0 mm
06:11 PM 74.5°F23.6°C 66.4°F19.1°C 76% Calm Calm 2.0 mph3.2 kmh 29.79 in1008.8 mb 0.00 in0.0 mm 0.00 in0.0 mm 0.00 in0.0 mm
06:16 PM 74.5°F23.6°C 66.4°F19.1°C 76% 0.4 mph SW0.6 kmh SW 1.1 mph1.8 kmh 29.79 in1008.8 mb 0.00 in0.0 mm 0.00 in0.0 mm 0.00 in0.0 mm
06:21 PM 74.5°F23.6°C 66.4°F19.1°C 76% 2.0 mph SW3.2 kmh SW 5.4 mph8.7 kmh 29.79 in1008.8 mb 0.00 in0.0 mm 0.00 in0.0 mm 0.00 in0.0 mm
06:26 PM 74.1°F23.4°C 66.0°F18.9°C 76% 2.5 mph WSW4.0 kmh WSW 5.4 mph8.7 kmh 29.79 in1008.8 mb 0.00 in0.0 mm 0.00 in0.0 mm 0.00 in0.0 mm
06:31 PM 73.9°F23.3°C 66.2°F19.0°C 77% 0.2 mph WSW0.3 kmh WSW 3.1 mph5.0 kmh 29.79 in1008.8 mb 0.00 in0.0 mm 0.00 in0.0 mm 0.00 in0.0 mm
06:36 PM 73.8°F23.2°C 66.4°F19.1°C 78% 1.1 mph SW1.8 kmh SW 3.1 mph5.0 kmh 29.79 in1008.8 mb 0.00 in0.0 mm 0.00 in0.0 mm 0.00 in0.0 mm
06:41 PM 73.6°F23.1°C 66.4°F19.1°C 78% 0.2 mph SW0.3 kmh SW 3.1 mph5.0 kmh 29.79 in1008.8 mb 0.00 in0.0 mm 0.00 in0.0 mm 0.00 in0.0 mm
06:46 PM 73.6°F23.1°C 66.4°F19.1°C 78% 0.2 mph SW0.3 kmh SW 3.1 mph5.0 kmh 29.79 in1008.8 mb 0.00 in0.0 mm 0.00 in0.0 mm 0.00 in0.0 mm
06:51 PM 73.4°F23.0°C 66.2°F19.0°C 78% 0.9 mph SW1.4 kmh SW 2.0 mph3.2 kmh 29.79 in1008.8 mb 0.00 in0.0 mm 0.00 in0.0 mm 0.00 in0.0 mm
06:56 PM 73.2°F22.9°C 66.0°F18.9°C 78% Calm Calm 1.1 mph1.8 kmh 29.79 in1008.8 mb 0.00 in0.0 mm 0.00 in0.0 mm 0.00 in0.0 mm
07:01 PM 73.2°F22.9°C 66.0°F18.9°C 78% Calm Calm 1.1 mph1.8 kmh 29.79 in1008.8 mb 0.00 in0.0 mm 0.00 in0.0 mm 0.00 in0.0 mm
07:06 PM 73.2°F22.9°C 66.0°F18.9°C 78% Calm Calm -- 29.79 in1008.8 mb 0.00 in0.0 mm 0.00 in0.0 mm 0.00 in0.0 mm
07:11 PM 73.2°F22.9°C 66.0°F18.9°C 78% 2.5 mph SW4.0 kmh SW 4.3 mph6.9 kmh 29.80 in1009.1 mb 0.00 in0.0 mm 0.00 in0.0 mm 0.00 in0.0 mm
07:16 PM 73.2°F22.9°C 66.0°F18.9°C 78% 0.4 mph SW0.6 kmh SW 4.3 mph6.9 kmh 29.80 in1009.1 mb 0.00 in0.0 mm 0.00 in0.0 mm 0.00 in0.0 mm
07:21 PM 73.2°F22.9°C 66.0°F18.9°C 78% 2.5 mph SW4.0 kmh SW 5.4 mph8.7 kmh 29.80 in1009.1 mb 0.00 in0.0 mm 0.00 in0.0 mm 0.00 in0.0 mm
07:26 PM 73.0°F22.8°C 65.8°F18.8°C 78% 3.4 mph SW5.5 kmh SW 5.4 mph8.7 kmh 29.80 in1009.1 mb 0.00 in0.0 mm 0.00 in0.0 mm 0.00 in0.0 mm
07:31 PM 73.0°F22.8°C 66.2°F19.0°C 79% 2.2 mph SW3.5 kmh SW 4.3 mph6.9 kmh 29.80 in1009.1 mb 0.00 in0.0 mm 0.00 in0.0 mm 0.00 in0.0 mm
07:36 PM 72.9°F22.7°C 66.0°F18.9°C 79% 0.7 mph W1.1 kmh W 3.1 mph5.0 kmh 29.80 in1009.1 mb 0.00 in0.0 mm 0.00 in0.0 mm 0.00 in0.0 mm
07:41 PM 72.7°F22.6°C 65.8°F18.8°C 79% 1.1 mph WNW1.8 kmh WNW 3.1 mph5.0 kmh 29.80 in1009.1 mb 0.00 in0.0 mm 0.00 in0.0 mm 0.00 in0.0 mm
07:46 PM 72.7°F22.6°C 66.2°F19.0°C 80% 0.2 mph W0.3 kmh W 4.3 mph6.9 kmh 29.81 in1009.5 mb 0.00 in0.0 mm 0.00 in0.0 mm 0.00 in0.0 mm
07:51 PM 72.5°F22.5°C 66.0°F18.9°C 80% 0.4 mph SW0.6 kmh SW 3.1 mph5.0 kmh 29.82 in1009.8 mb 0.00 in0.0 mm 0.00 in0.0 mm 0.00 in0.0 mm
07:56 PM 72.1°F22.3°C 66.0°F18.9°C 81% 3.1 mph SSW5.0 kmh SSW 6.3 mph10.1 kmh 29.82 in1009.8 mb 0.00 in0.0 mm 0.00 in0.0 mm 0.00 in0.0 mm
08:01 PM 72.0°F22.2°C 66.2°F19.0°C 82% 0.4 mph SW0.6 kmh SW 2.0 mph3.2 kmh 29.82 in1009.8 mb 0.00 in0.0 mm 0.00 in0.0 mm 0.00 in0.0 mm
08:06 PM 71.8°F22.1°C 66.0°F18.9°C 82% 2.7 mph WSW4.3 kmh WSW 4.3 mph6.9 kmh 29.82 in1009.8 mb 0.00 in0.0 mm 0.00 in0.0 mm 0.00 in0.0 mm
08:11 PM 71.4°F21.9°C 66.0°F18.9°C 83% 1.8 mph S2.9 kmh S 4.3 mph6.9 kmh 29.83 in1010.2 mb 0.00 in0.0 mm 0.00 in0.0 mm 0.00 in0.0 mm
08:16 PM 71.2°F21.8°C 65.8°F18.8°C 83% 2.5 mph S4.0 kmh S 5.4 mph8.7 kmh 29.82 in1009.8 mb 0.00 in0.0 mm 0.00 in0.0 mm 0.00 in0.0 mm
08:21 PM 71.1°F21.7°C 66.0°F18.9°C 84% 1.8 mph SW2.9 kmh SW 4.3 mph6.9 kmh 29.82 in1009.8 mb 0.00 in0.0 mm 0.00 in0.0 mm 0.00 in0.0 mm
08:26 PM 71.1°F21.7°C 66.0°F18.9°C 84% 0.7 mph SW1.1 kmh SW 3.1 mph5.0 kmh 29.82 in1009.8 mb 0.00 in0.0 mm 0.00 in0.0 mm 0.00 in0.0 mm
08:31 PM 70.9°F21.6°C 65.8°F18.8°C 84% 1.1 mph SW1.8 kmh SW 4.3 mph6.9 kmh 29.82 in1009.8 mb 0.00 in0.0 mm 0.00 in0.0 mm 0.00 in0.0 mm
08:36 PM 70.9°F21.6°C 65.8°F18.8°C 84% 2.2 mph SW3.5 kmh SW 5.4 mph8.7 kmh 29.82 in1009.8 mb 0.00 in0.0 mm 0.00 in0.0 mm 0.00 in0.0 mm
08:41 PM 70.9°F21.6°C 66.2°F19.0°C 85% 1.8 mph SW2.9 kmh SW 4.3 mph6.9 kmh 29.82 in1009.8 mb 0.00 in0.0 mm 0.00 in0.0 mm 0.00 in0.0 mm
08:46 PM 70.7°F21.5°C 66.0°F18.9°C 85% 0.9 mph SW1.4 kmh SW 3.1 mph5.0 kmh 29.82 in1009.8 mb 0.00 in0.0 mm 0.00 in0.0 mm 0.00 in0.0 mm
08:51 PM 70.7°F21.5°C 66.0°F18.9°C 85% 1.6 mph S2.6 kmh S 3.1 mph5.0 kmh 29.83 in1010.2 mb 0.00 in0.0 mm 0.00 in0.0 mm 0.00 in0.0 mm
08:56 PM 70.5°F21.4°C 65.8°F18.8°C 85% 0.2 mph SW0.3 kmh SW 2.0 mph3.2 kmh 29.83 in1010.2 mb 0.00 in0.0 mm 0.00 in0.0 mm 0.00 in0.0 mm
09:01 PM 70.7°F21.5°C 66.0°F18.9°C 85% 1.1 mph SW1.8 kmh SW 2.0 mph3.2 kmh 29.83 in1010.2 mb 0.00 in0.0 mm 0.00 in0.0 mm 0.00 in0.0 mm
09:06 PM 70.5°F21.4°C 65.8°F18.8°C 85% Calm Calm 2.0 mph3.2 kmh 29.83 in1010.2 mb 0.00 in0.0 mm 0.00 in0.0 mm 0.00 in0.0 mm
09:11 PM 70.5°F21.4°C 65.8°F18.8°C 85% 0.2 mph WSW0.3 kmh WSW 1.1 mph1.8 kmh 29.83 in1010.2 mb 0.00 in0.0 mm 0.00 in0.0 mm 0.00 in0.0 mm
09:16 PM 70.5°F21.4°C 65.8°F18.8°C 85% Calm Calm -- 29.83 in1010.2 mb 0.00 in0.0 mm 0.00 in0.0 mm 0.00 in0.0 mm
09:21 PM 70.5°F21.4°C 65.8°F18.8°C 85% 0.7 mph SW1.1 kmh SW 2.0 mph3.2 kmh 29.83 in1010.2 mb 0.00 in0.0 mm 0.00 in0.0 mm 0.00 in0.0 mm
09:26 PM 70.3°F21.3°C 66.0°F18.9°C 86% Calm Calm 2.0 mph3.2 kmh 29.83 in1010.2 mb 0.00 in0.0 mm 0.00 in0.0 mm 0.00 in0.0 mm
09:31 PM 70.3°F21.3°C 66.0°F18.9°C 86% Calm Calm -- 29.83 in1010.2 mb 0.00 in0.0 mm 0.00 in0.0 mm 0.00 in0.0 mm
09:36 PM 70.3°F21.3°C 66.0°F18.9°C 86% 0.7 mph SW1.1 kmh SW 1.1 mph1.8 kmh 29.82 in1009.8 mb 0.00 in0.0 mm 0.00 in0.0 mm 0.00 in0.0 mm
09:41 PM 70.3°F21.3°C 66.0°F18.9°C 86% Calm Calm 2.0 mph3.2 kmh 29.83 in1010.2 mb 0.00 in0.0 mm 0.00 in0.0 mm 0.00 in0.0 mm
09:46 PM 70.3°F21.3°C 66.0°F18.9°C 86% Calm Calm -- 29.83 in1010.2 mb 0.00 in0.0 mm 0.00 in0.0 mm 0.00 in0.0 mm
09:51 PM 70.3°F21.3°C 66.0°F18.9°C 86% Calm Calm 1.1 mph1.8 kmh 29.83 in1010.2 mb 0.00 in0.0 mm 0.00 in0.0 mm 0.00 in0.0 mm
09:56 PM 70.3°F21.3°C 66.0°F18.9°C 86% Calm Calm -- 29.83 in1010.2 mb 0.00 in0.0 mm 0.00 in0.0 mm 0.00 in0.0 mm
10:01 PM 70.3°F21.3°C 66.0°F18.9°C 86% Calm Calm 2.0 mph3.2 kmh 29.84 in1010.5 mb 0.00 in0.0 mm 0.00 in0.0 mm 0.00 in0.0 mm
10:06 PM 70.3°F21.3°C 66.0°F18.9°C 86% Calm Calm -- 29.84 in1010.5 mb 0.00 in0.0 mm 0.00 in0.0 mm 0.00 in0.0 mm
10:11 PM 70.3°F21.3°C 66.0°F18.9°C 86% Calm Calm 1.1 mph1.8 kmh 29.84 in1010.5 mb 0.00 in0.0 mm 0.00 in0.0 mm 0.00 in0.0 mm
10:16 PM 70.3°F21.3°C 66.0°F18.9°C 86% Calm Calm 1.1 mph1.8 kmh 29.84 in1010.5 mb 0.00 in0.0 mm 0.00 in0.0 mm 0.00 in0.0 mm
10:21 PM 70.3°F21.3°C 66.0°F18.9°C 86% 0.2 mph SW0.3 kmh SW 1.1 mph1.8 kmh 29.84 in1010.5 mb 0.00 in0.0 mm 0.00 in0.0 mm 0.00 in0.0 mm
10:26 PM 70.3°F21.3°C 66.0°F18.9°C 86% 0.2 mph SW0.3 kmh SW 2.0 mph3.2 kmh 29.84 in1010.5 mb 0.00 in0.0 mm 0.00 in0.0 mm 0.00 in0.0 mm
10:31 PM 70.3°F21.3°C 66.0°F18.9°C 86% 2.0 mph SW3.2 kmh SW 3.1 mph5.0 kmh 29.84 in1010.5 mb 0.00 in0.0 mm 0.00 in0.0 mm 0.00 in0.0 mm
10:36 PM 70.3°F21.3°C 66.2°F19.0°C 87% 0.4 mph SSW0.6 kmh SSW 2.0 mph3.2 kmh 29.84 in1010.5 mb 0.00 in0.0 mm 0.00 in0.0 mm 0.00 in0.0 mm
10:41 PM 70.5°F21.4°C 66.4°F19.1°C 87% 1.1 mph SW1.8 kmh SW 3.1 mph5.0 kmh 29.85 in1010.8 mb 0.00 in0.0 mm 0.00 in0.0 mm 0.00 in0.0 mm
10:46 PM 70.3°F21.3°C 66.2°F19.0°C 87% 1.1 mph W1.8 kmh W 3.1 mph5.0 kmh 29.84 in1010.5 mb 0.00 in0.0 mm 0.00 in0.0 mm 0.00 in0.0 mm
10:51 PM 70.3°F21.3°C 66.2°F19.0°C 87% Calm Calm -- 29.85 in1010.8 mb 0.00 in0.0 mm 0.00 in0.0 mm 0.00 in0.0 mm
10:56 PM 70.3°F21.3°C 66.2°F19.0°C 87% 1.3 mph SSW2.1 kmh SSW 3.1 mph5.0 kmh 29.85 in1010.8 mb 0.00 in0.0 mm 0.00 in0.0 mm 0.00 in0.0 mm
11:01 PM 70.3°F21.3°C 66.2°F19.0°C 87% 0.7 mph WSW1.1 kmh WSW 4.3 mph6.9 kmh 29.85 in1010.8 mb 0.00 in0.0 mm 0.00 in0.0 mm 0.00 in0.0 mm
11:06 PM 70.3°F21.3°C 66.2°F19.0°C 87% 0.4 mph SSW0.6 kmh SSW 3.1 mph5.0 kmh 29.85 in1010.8 mb 0.00 in0.0 mm 0.00 in0.0 mm 0.00 in0.0 mm
11:11 PM 70.3°F21.3°C 66.2°F19.0°C 87% 1.1 mph SW1.8 kmh SW 3.1 mph5.0 kmh 29.85 in1010.8 mb 0.00 in0.0 mm 0.00 in0.0 mm 0.00 in0.0 mm
11:16 PM 70.3°F21.3°C 66.6°F19.2°C 88% 1.1 mph SW1.8 kmh SW 2.0 mph3.2 kmh 29.85 in1010.8 mb 0.00 in0.0 mm 0.00 in0.0 mm 0.00 in0.0 mm
11:21 PM 70.3°F21.3°C 66.6°F19.2°C 88% 1.3 mph SSW2.1 kmh SSW 3.1 mph5.0 kmh 29.85 in1010.8 mb 0.00 in0.0 mm 0.00 in0.0 mm 0.00 in0.0 mm
11:26 PM 70.2°F21.2°C 66.4°F19.1°C 88% 1.3 mph SW2.1 kmh SW 3.1 mph5.0 kmh 29.84 in1010.5 mb 0.00 in0.0 mm 0.00 in0.0 mm 0.00 in0.0 mm
11:31 PM 70.2°F21.2°C 66.4°F19.1°C 88% 0.9 mph SW1.4 kmh SW 3.1 mph5.0 kmh 29.84 in1010.5 mb 0.00 in0.0 mm 0.00 in0.0 mm 0.00 in0.0 mm
11:36 PM 70.2°F21.2°C 66.4°F19.1°C 88% 1.6 mph SW2.6 kmh SW 3.1 mph5.0 kmh 29.84 in1010.5 mb 0.00 in0.0 mm 0.00 in0.0 mm 0.00 in0.0 mm
11:41 PM 70.2°F21.2°C 66.7°F19.3°C 89% 0.7 mph SW1.1 kmh SW 3.1 mph5.0 kmh 29.84 in1010.5 mb 0.00 in0.0 mm 0.00 in0.0 mm 0.00 in0.0 mm
11:46 PM 70.0°F21.1°C 66.6°F19.2°C 89% 0.7 mph SSW1.1 kmh SSW 2.0 mph3.2 kmh 29.85 in1010.8 mb 0.00 in0.0 mm 0.00 in0.0 mm 0.00 in0.0 mm
11:51 PM 70.0°F21.1°C 66.6°F19.2°C 89% 0.7 mph SSW1.1 kmh SSW 2.0 mph3.2 kmh 29.85 in1010.8 mb 0.00 in0.0 mm 0.00 in0.0 mm 0.00 in0.0 mm
11:56 PM 70.0°F21.1°C 66.6°F19.2°C 89% 1.1 mph S1.8 kmh S 2.0 mph3.2 kmh 29.84 in1010.5 mb 0.00 in0.0 mm 0.00 in0.0 mm 0.00 in0.0 mm